sensor_id;sensor_type;location;lat;lon;timestamp;P1;durP1;ratioP1;P2;durP2;ratioP2
64459;SDS011;50828;53.756;21.140;2023-05-23T00:01:26;15.90;;;7.30;;
64459;SDS011;50828;53.756;21.140;2023-05-23T00:06:34;20.70;;;7.80;;
64459;SDS011;50828;53.756;21.140;2023-05-23T00:11:42;21.60;;;8.90;;
64459;SDS011;50828;53.756;21.140;2023-05-23T00:16:50;24.70;;;10.60;;
64459;SDS011;50828;53.756;21.140;2023-05-23T00:21:58;26.30;;;10.60;;
64459;SDS011;50828;53.756;21.140;2023-05-23T00:27:07;36.30;;;13.20;;
64459;SDS011;50828;53.756;21.140;2023-05-23T00:32:15;55.10;;;17.70;;
64459;SDS011;50828;53.756;21.140;2023-05-23T00:37:23;45.90;;;15.40;;
64459;SDS011;50828;53.756;21.140;2023-05-23T00:42:31;37.20;;;12.20;;
64459;SDS011;50828;53.756;21.140;2023-05-23T00:47:39;17.40;;;7.90;;
64459;SDS011;50828;53.756;21.140;2023-05-23T00:52:49;10.30;;;6.10;;
64459;SDS011;50828;53.756;21.140;2023-05-23T00:57:57;9.70;;;5.40;;
64459;SDS011;50828;53.756;21.140;2023-05-23T01:03:06;10.60;;;5.50;;
64459;SDS011;50828;53.756;21.140;2023-05-23T01:08:21;10.30;;;5.70;;
64459;SDS011;50828;53.756;21.140;2023-05-23T01:13:30;9.80;;;6.00;;
64459;SDS011;50828;53.756;21.140;2023-05-23T01:18:45;9.90;;;5.40;;
64459;SDS011;50828;53.756;21.140;2023-05-23T01:24:06;9.30;;;6.00;;
64459;SDS011;50828;53.756;21.140;2023-05-23T01:29:25;10.80;;;6.10;;
64459;SDS011;50828;53.756;21.140;2023-05-23T01:34:37;9.20;;;6.10;;
64459;SDS011;50828;53.756;21.140;2023-05-23T01:39:46;9.90;;;5.30;;
64459;SDS011;50828;53.756;21.140;2023-05-23T01:44:55;7.50;;;5.10;;
64459;SDS011;50828;53.756;21.140;2023-05-23T01:50:08;7.50;;;5.00;;
64459;SDS011;50828;53.756;21.140;2023-05-23T01:55:18;7.30;;;4.60;;
64459;SDS011;50828;53.756;21.140;2023-05-23T02:00:27;11.90;;;7.70;;
64459;SDS011;50828;53.756;21.140;2023-05-23T02:05:35;12.70;;;8.00;;
64459;SDS011;50828;53.756;21.140;2023-05-23T02:10:44;13.00;;;7.30;;
64459;SDS011;50828;53.756;21.140;2023-05-23T02:15:51;16.00;;;8.20;;
64459;SDS011;50828;53.756;21.140;2023-05-23T02:20:59;15.50;;;7.60;;
64459;SDS011;50828;53.756;21.140;2023-05-23T02:26:08;12.70;;;6.80;;
64459;SDS011;50828;53.756;21.140;2023-05-23T02:31:18;10.90;;;6.20;;
64459;SDS011;50828;53.756;21.140;2023-05-23T02:36:26;8.10;;;5.90;;
64459;SDS011;50828;53.756;21.140;2023-05-23T02:41:36;10.80;;;6.00;;
64459;SDS011;50828;53.756;21.140;2023-05-23T02:46:43;11.50;;;6.60;;
64459;SDS011;50828;53.756;21.140;2023-05-23T02:51:54;12.40;;;6.20;;
64459;SDS011;50828;53.756;21.140;2023-05-23T02:57:02;11.60;;;6.40;;
64459;SDS011;50828;53.756;21.140;2023-05-23T03:02:11;14.50;;;6.70;;
64459;SDS011;50828;53.756;21.140;2023-05-23T03:07:19;13.60;;;6.70;;
64459;SDS011;50828;53.756;21.140;2023-05-23T03:17:38;13.60;;;6.80;;
64459;SDS011;50828;53.756;21.140;2023-05-23T03:22:47;11.60;;;6.40;;
64459;SDS011;50828;53.756;21.140;2023-05-23T03:27:55;11.00;;;6.50;;
64459;SDS011;50828;53.756;21.140;2023-05-23T03:33:04;7.60;;;5.60;;
64459;SDS011;50828;53.756;21.140;2023-05-23T03:38:12;10.40;;;5.80;;
64459;SDS011;50828;53.756;21.140;2023-05-23T03:43:21;7.50;;;5.20;;
64459;SDS011;50828;53.756;21.140;2023-05-23T03:48:29;8.80;;;5.70;;
64459;SDS011;50828;53.756;21.140;2023-05-23T03:53:38;7.00;;;5.30;;
64459;SDS011;50828;53.756;21.140;2023-05-23T03:58:47;8.30;;;5.80;;
64459;SDS011;50828;53.756;21.140;2023-05-23T04:03:56;8.00;;;5.20;;
64459;SDS011;50828;53.756;21.140;2023-05-23T04:09:08;6.80;;;5.40;;
64459;SDS011;50828;53.756;21.140;2023-05-23T04:14:19;10.80;;;5.90;;
64459;SDS011;50828;53.756;21.140;2023-05-23T04:19:32;7.60;;;5.60;;
64459;SDS011;50828;53.756;21.140;2023-05-23T04:24:41;7.70;;;5.10;;
64459;SDS011;50828;53.756;21.140;2023-05-23T04:29:51;8.60;;;5.00;;
64459;SDS011;50828;53.756;21.140;2023-05-23T04:35:01;7.70;;;5.10;;
64459;SDS011;50828;53.756;21.140;2023-05-23T04:40:13;8.20;;;5.50;;
64459;SDS011;50828;53.756;21.140;2023-05-23T04:45:53;6.60;;;5.30;;
64459;SDS011;50828;53.756;21.140;2023-05-23T04:51:14;8.80;;;5.80;;
64459;SDS011;50828;53.756;21.140;2023-05-23T04:56:32;9.10;;;5.80;;
64459;SDS011;50828;53.756;21.140;2023-05-23T05:01:40;8.30;;;5.40;;
64459;SDS011;50828;53.756;21.140;2023-05-23T05:06:49;7.50;;;5.40;;
64459;SDS011;50828;53.756;21.140;2023-05-23T05:11:58;7.30;;;5.40;;
64459;SDS011;50828;53.756;21.140;2023-05-23T05:17:07;31.60;;;12.10;;
64459;SDS011;50828;53.756;21.140;2023-05-23T05:22:31;31.00;;;14.00;;
64459;SDS011;50828;53.756;21.140;2023-05-23T05:27:40;30.00;;;11.60;;
64459;SDS011;50828;53.756;21.140;2023-05-23T05:32:51;18.30;;;9.60;;
64459;SDS011;50828;53.756;21.140;2023-05-23T05:38:01;13.60;;;7.70;;
64459;SDS011;50828;53.756;21.140;2023-05-23T05:43:09;9.80;;;6.60;;
64459;SDS011;50828;53.756;21.140;2023-05-23T05:48:18;11.30;;;5.80;;
64459;SDS011;50828;53.756;21.140;2023-05-23T05:53:29;16.90;;;9.30;;
64459;SDS011;50828;53.756;21.140;2023-05-23T05:58:38;13.00;;;8.10;;
64459;SDS011;50828;53.756;21.140;2023-05-23T06:03:49;19.30;;;10.80;;
64459;SDS011;50828;53.756;21.140;2023-05-23T06:08:57;27.40;;;13.80;;
64459;SDS011;50828;53.756;21.140;2023-05-23T06:14:05;16.00;;;8.90;;
64459;SDS011;50828;53.756;21.140;2023-05-23T06:19:17;11.40;;;7.40;;
64459;SDS011;50828;53.756;21.140;2023-05-23T06:24:24;9.90;;;6.40;;
64459;SDS011;50828;53.756;21.140;2023-05-23T06:29:33;7.10;;;5.40;;
64459;SDS011;50828;53.756;21.140;2023-05-23T06:34:40;7.90;;;5.80;;
64459;SDS011;50828;53.756;21.140;2023-05-23T06:39:49;8.40;;;5.70;;
64459;SDS011;50828;53.756;21.140;2023-05-23T06:44:58;8.50;;;5.20;;
64459;SDS011;50828;53.756;21.140;2023-05-23T06:50:08;7.80;;;5.00;;
64459;SDS011;50828;53.756;21.140;2023-05-23T06:55:17;7.00;;;5.00;;
64459;SDS011;50828;53.756;21.140;2023-05-23T07:00:26;6.00;;;4.90;;
64459;SDS011;50828;53.756;21.140;2023-05-23T07:05:40;7.90;;;5.00;;
64459;SDS011;50828;53.756;21.140;2023-05-23T07:10:50;7.30;;;4.30;;
64459;SDS011;50828;53.756;21.140;2023-05-23T07:16:19;6.50;;;4.30;;
64459;SDS011;50828;53.756;21.140;2023-05-23T07:21:52;6.60;;;4.20;;
64459;SDS011;50828;53.756;21.140;2023-05-23T07:27:02;6.60;;;4.20;;
64459;SDS011;50828;53.756;21.140;2023-05-23T07:32:12;4.70;;;3.80;;
64459;SDS011;50828;53.756;21.140;2023-05-23T07:37:21;4.90;;;3.30;;
64459;SDS011;50828;53.756;21.140;2023-05-23T07:42:30;4.40;;;3.50;;
64459;SDS011;50828;53.756;21.140;2023-05-23T07:47:38;4.50;;;3.10;;
64459;SDS011;50828;53.756;21.140;2023-05-23T07:52:47;5.10;;;2.90;;
64459;SDS011;50828;53.756;21.140;2023-05-23T07:58:00;5.30;;;3.00;;
64459;SDS011;50828;53.756;21.140;2023-05-23T08:03:08;5.00;;;2.90;;
64459;SDS011;50828;53.756;21.140;2023-05-23T08:08:25;6.30;;;3.10;;
64459;SDS011;50828;53.756;21.140;2023-05-23T08:13:34;5.10;;;3.10;;
64459;SDS011;50828;53.756;21.140;2023-05-23T08:19:00;6.30;;;2.70;;
64459;SDS011;50828;53.756;21.140;2023-05-23T08:24:08;5.00;;;3.00;;
64459;SDS011;50828;53.756;21.140;2023-05-23T08:29:18;4.90;;;3.00;;
64459;SDS011;50828;53.756;21.140;2023-05-23T08:34:26;7.70;;;2.90;;
64459;SDS011;50828;53.756;21.140;2023-05-23T08:39:34;5.90;;;2.90;;
64459;SDS011;50828;53.756;21.140;2023-05-23T08:45:09;4.70;;;2.70;;
64459;SDS011;50828;53.756;21.140;2023-05-23T08:50:17;3.80;;;2.80;;
64459;SDS011;50828;53.756;21.140;2023-05-23T08:55:26;4.80;;;2.60;;
64459;SDS011;50828;53.756;21.140;2023-05-23T09:00:35;4.20;;;2.70;;
64459;SDS011;50828;53.756;21.140;2023-05-23T09:05:45;4.10;;;2.70;;
64459;SDS011;50828;53.756;21.140;2023-05-23T09:10:54;4.20;;;2.40;;
64459;SDS011;50828;53.756;21.140;2023-05-23T09:16:02;4.10;;;2.70;;
64459;SDS011;50828;53.756;21.140;2023-05-23T09:21:15;5.80;;;2.90;;
64459;SDS011;50828;53.756;21.140;2023-05-23T09:26:30;4.10;;;2.40;;
64459;SDS011;50828;53.756;21.140;2023-05-23T09:31:38;3.00;;;2.10;;
64459;SDS011;50828;53.756;21.140;2023-05-23T09:36:47;4.50;;;2.40;;
64459;SDS011;50828;53.756;21.140;2023-05-23T09:41:55;3.70;;;2.20;;
64459;SDS011;50828;53.756;21.140;2023-05-23T09:47:07;4.20;;;2.40;;
64459;SDS011;50828;53.756;21.140;2023-05-23T09:52:15;4.70;;;2.50;;
64459;SDS011;50828;53.756;21.140;2023-05-23T09:57:24;5.20;;;2.80;;
64459;SDS011;50828;53.756;21.140;2023-05-23T10:08:06;4.60;;;2.70;;
64459;SDS011;50828;53.756;21.140;2023-05-23T10:13:16;4.00;;;2.80;;
64459;SDS011;50828;53.756;21.140;2023-05-23T10:18:25;3.10;;;2.20;;
64459;SDS011;50828;53.756;21.140;2023-05-23T10:23:39;4.00;;;2.70;;
64459;SDS011;50828;53.756;21.140;2023-05-23T10:28:49;5.00;;;2.40;;
64459;SDS011;50828;53.756;21.140;2023-05-23T10:34:05;5.00;;;2.60;;
64459;SDS011;50828;53.756;21.140;2023-05-23T10:39:21;4.40;;;2.30;;
64459;SDS011;50828;53.756;21.140;2023-05-23T10:44:39;5.70;;;2.60;;
64459;SDS011;50828;53.756;21.140;2023-05-23T10:49:48;4.00;;;2.20;;
64459;SDS011;50828;53.756;21.140;2023-05-23T10:55:00;3.40;;;2.30;;
64459;SDS011;50828;53.756;21.140;2023-05-23T11:00:17;5.10;;;2.40;;
64459;SDS011;50828;53.756;21.140;2023-05-23T11:05:28;4.20;;;2.00;;
64459;SDS011;50828;53.756;21.140;2023-05-23T11:10:54;3.90;;;2.10;;
64459;SDS011;50828;53.756;21.140;2023-05-23T11:21:31;3.30;;;2.30;;
64459;SDS011;50828;53.756;21.140;2023-05-23T11:26:42;4.10;;;2.10;;
64459;SDS011;50828;53.756;21.140;2023-05-23T11:32:07;3.30;;;2.10;;
64459;SDS011;50828;53.756;21.140;2023-05-23T11:37:20;4.80;;;2.00;;
64459;SDS011;50828;53.756;21.140;2023-05-23T11:42:30;4.30;;;1.80;;
64459;SDS011;50828;53.756;21.140;2023-05-23T11:47:41;3.20;;;1.90;;
64459;SDS011;50828;53.756;21.140;2023-05-23T11:52:50;4.60;;;2.20;;
64459;SDS011;50828;53.756;21.140;2023-05-23T11:57:59;5.90;;;2.20;;
64459;SDS011;50828;53.756;21.140;2023-05-23T12:03:07;2.50;;;2.00;;
64459;SDS011;50828;53.756;21.140;2023-05-23T12:08:15;3.10;;;1.80;;
64459;SDS011;50828;53.756;21.140;2023-05-23T12:13:28;3.00;;;1.80;;
64459;SDS011;50828;53.756;21.140;2023-05-23T12:18:37;3.00;;;1.80;;
64459;SDS011;50828;53.756;21.140;2023-05-23T12:23:47;3.20;;;1.90;;
64459;SDS011;50828;53.756;21.140;2023-05-23T12:28:55;4.40;;;2.20;;
64459;SDS011;50828;53.756;21.140;2023-05-23T12:34:04;2.60;;;1.60;;
64459;SDS011;50828;53.756;21.140;2023-05-23T12:39:11;2.40;;;1.80;;
64459;SDS011;50828;53.756;21.140;2023-05-23T12:44:20;2.50;;;1.70;;
64459;SDS011;50828;53.756;21.140;2023-05-23T12:49:28;3.50;;;1.90;;
64459;SDS011;50828;53.756;21.140;2023-05-23T12:54:36;2.90;;;1.90;;
64459;SDS011;50828;53.756;21.140;2023-05-23T12:59:45;3.00;;;2.00;;
64459;SDS011;50828;53.756;21.140;2023-05-23T13:04:53;3.20;;;1.90;;
64459;SDS011;50828;53.756;21.140;2023-05-23T13:10:01;2.80;;;2.00;;
64459;SDS011;50828;53.756;21.140;2023-05-23T13:15:11;2.50;;;1.90;;
64459;SDS011;50828;53.756;21.140;2023-05-23T13:20:18;2.80;;;1.80;;
64459;SDS011;50828;53.756;21.140;2023-05-23T13:25:26;3.20;;;2.00;;
64459;SDS011;50828;53.756;21.140;2023-05-23T13:30:34;3.90;;;2.00;;
64459;SDS011;50828;53.756;21.140;2023-05-23T13:35:46;3.10;;;2.00;;
64459;SDS011;50828;53.756;21.140;2023-05-23T13:40:55;5.00;;;2.20;;
64459;SDS011;50828;53.756;21.140;2023-05-23T13:46:04;4.50;;;2.30;;
64459;SDS011;50828;53.756;21.140;2023-05-23T13:51:13;2.80;;;1.90;;
64459;SDS011;50828;53.756;21.140;2023-05-23T13:56:21;5.80;;;2.10;;
64459;SDS011;50828;53.756;21.140;2023-05-23T14:01:29;3.50;;;2.20;;
64459;SDS011;50828;53.756;21.140;2023-05-23T14:06:38;3.80;;;2.60;;
64459;SDS011;50828;53.756;21.140;2023-05-23T14:11:46;3.20;;;2.20;;
64459;SDS011;50828;53.756;21.140;2023-05-23T14:16:55;3.20;;;2.10;;
64459;SDS011;50828;53.756;21.140;2023-05-23T14:22:04;4.10;;;2.10;;
64459;SDS011;50828;53.756;21.140;2023-05-23T14:27:12;2.70;;;1.90;;
64459;SDS011;50828;53.756;21.140;2023-05-23T14:32:22;3.80;;;2.20;;
64459;SDS011;50828;53.756;21.140;2023-05-23T14:37:30;3.50;;;2.20;;
64459;SDS011;50828;53.756;21.140;2023-05-23T14:42:38;2.90;;;2.00;;
64459;SDS011;50828;53.756;21.140;2023-05-23T14:47:46;3.50;;;2.20;;
64459;SDS011;50828;53.756;21.140;2023-05-23T14:52:56;3.50;;;2.10;;
64459;SDS011;50828;53.756;21.140;2023-05-23T14:58:04;5.60;;;2.30;;
64459;SDS011;50828;53.756;21.140;2023-05-23T15:03:12;3.60;;;2.00;;
64459;SDS011;50828;53.756;21.140;2023-05-23T15:08:21;2.70;;;2.00;;
64459;SDS011;50828;53.756;21.140;2023-05-23T15:13:29;4.30;;;2.20;;
64459;SDS011;50828;53.756;21.140;2023-05-23T15:18:36;3.90;;;2.20;;
64459;SDS011;50828;53.756;21.140;2023-05-23T15:23:45;3.20;;;2.20;;
64459;SDS011;50828;53.756;21.140;2023-05-23T15:28:54;3.00;;;2.20;;
64459;SDS011;50828;53.756;21.140;2023-05-23T15:34:02;3.20;;;2.20;;
64459;SDS011;50828;53.756;21.140;2023-05-23T15:39:11;5.60;;;2.20;;
64459;SDS011;50828;53.756;21.140;2023-05-23T15:44:19;4.20;;;2.10;;
64459;SDS011;50828;53.756;21.140;2023-05-23T15:49:28;4.80;;;2.10;;
64459;SDS011;50828;53.756;21.140;2023-05-23T15:54:36;2.90;;;2.10;;
64459;SDS011;50828;53.756;21.140;2023-05-23T15:59:44;4.00;;;2.30;;
64459;SDS011;50828;53.756;21.140;2023-05-23T16:04:52;5.00;;;2.50;;
64459;SDS011;50828;53.756;21.140;2023-05-23T16:10:01;4.90;;;2.30;;
64459;SDS011;50828;53.756;21.140;2023-05-23T16:15:10;4.90;;;2.20;;
64459;SDS011;50828;53.756;21.140;2023-05-23T16:20:19;3.20;;;2.20;;
64459;SDS011;50828;53.756;21.140;2023-05-23T16:25:28;2.90;;;2.00;;
64459;SDS011;50828;53.756;21.140;2023-05-23T16:30:36;3.10;;;1.80;;
64459;SDS011;50828;53.756;21.140;2023-05-23T16:35:44;6.70;;;2.20;;
64459;SDS011;50828;53.756;21.140;2023-05-23T16:40:52;6.00;;;2.20;;
64459;SDS011;50828;53.756;21.140;2023-05-23T16:46:00;3.70;;;1.90;;
64459;SDS011;50828;53.756;21.140;2023-05-23T16:51:08;4.60;;;2.10;;
64459;SDS011;50828;53.756;21.140;2023-05-23T16:56:16;3.00;;;2.30;;
64459;SDS011;50828;53.756;21.140;2023-05-23T17:01:24;3.60;;;2.40;;
64459;SDS011;50828;53.756;21.140;2023-05-23T17:06:34;3.80;;;2.20;;
64459;SDS011;50828;53.756;21.140;2023-05-23T17:11:43;4.30;;;2.20;;
64459;SDS011;50828;53.756;21.140;2023-05-23T17:16:52;5.00;;;2.50;;
64459;SDS011;50828;53.756;21.140;2023-05-23T17:22:01;4.80;;;2.20;;
64459;SDS011;50828;53.756;21.140;2023-05-23T17:27:11;3.90;;;2.20;;
64459;SDS011;50828;53.756;21.140;2023-05-23T17:32:20;4.00;;;2.30;;
64459;SDS011;50828;53.756;21.140;2023-05-23T17:37:27;3.80;;;2.60;;
64459;SDS011;50828;53.756;21.140;2023-05-23T17:42:37;9.00;;;2.90;;
64459;SDS011;50828;53.756;21.140;2023-05-23T17:47:45;3.80;;;2.80;;
64459;SDS011;50828;53.756;21.140;2023-05-23T17:52:53;5.70;;;2.50;;
64459;SDS011;50828;53.756;21.140;2023-05-23T17:58:00;5.30;;;2.40;;
64459;SDS011;50828;53.756;21.140;2023-05-23T18:03:08;4.00;;;2.50;;
64459;SDS011;50828;53.756;21.140;2023-05-23T18:08:15;3.90;;;3.00;;
64459;SDS011;50828;53.756;21.140;2023-05-23T18:13:23;5.00;;;3.20;;
64459;SDS011;50828;53.756;21.140;2023-05-23T18:18:30;12.70;;;5.30;;
64459;SDS011;50828;53.756;21.140;2023-05-23T18:23:38;14.40;;;6.10;;
64459;SDS011;50828;53.756;21.140;2023-05-23T18:28:45;20.60;;;7.70;;
64459;SDS011;50828;53.756;21.140;2023-05-23T18:33:53;12.90;;;6.90;;
64459;SDS011;50828;53.756;21.140;2023-05-23T18:39:01;20.90;;;10.70;;
64459;SDS011;50828;53.756;21.140;2023-05-23T18:44:08;21.70;;;12.50;;
64459;SDS011;50828;53.756;21.140;2023-05-23T18:49:16;21.30;;;11.90;;
64459;SDS011;50828;53.756;21.140;2023-05-23T18:54:23;18.60;;;10.60;;
64459;SDS011;50828;53.756;21.140;2023-05-23T18:59:31;14.20;;;7.80;;
64459;SDS011;50828;53.756;21.140;2023-05-23T19:04:39;7.30;;;5.30;;
64459;SDS011;50828;53.756;21.140;2023-05-23T19:09:46;8.20;;;4.70;;
64459;SDS011;50828;53.756;21.140;2023-05-23T19:14:54;9.60;;;4.40;;
64459;SDS011;50828;53.756;21.140;2023-05-23T19:20:03;5.90;;;3.80;;
64459;SDS011;50828;53.756;21.140;2023-05-23T19:25:12;6.70;;;4.00;;
64459;SDS011;50828;53.756;21.140;2023-05-23T19:30:21;9.10;;;3.90;;
64459;SDS011;50828;53.756;21.140;2023-05-23T19:35:28;9.00;;;4.00;;
64459;SDS011;50828;53.756;21.140;2023-05-23T19:40:37;7.50;;;3.70;;
64459;SDS011;50828;53.756;21.140;2023-05-23T19:45:45;7.40;;;3.80;;
64459;SDS011;50828;53.756;21.140;2023-05-23T19:50:53;8.50;;;4.10;;
64459;SDS011;50828;53.756;21.140;2023-05-23T19:56:01;10.80;;;4.00;;
64459;SDS011;50828;53.756;21.140;2023-05-23T20:01:10;7.60;;;3.80;;
64459;SDS011;50828;53.756;21.140;2023-05-23T20:06:18;8.50;;;4.50;;
64459;SDS011;50828;53.756;21.140;2023-05-23T20:11:26;9.90;;;4.90;;
64459;SDS011;50828;53.756;21.140;2023-05-23T20:16:35;8.10;;;4.70;;
64459;SDS011;50828;53.756;21.140;2023-05-23T20:21:43;13.20;;;6.00;;
64459;SDS011;50828;53.756;21.140;2023-05-23T20:26:51;9.80;;;5.40;;
64459;SDS011;50828;53.756;21.140;2023-05-23T20:31:59;11.90;;;5.40;;
64459;SDS011;50828;53.756;21.140;2023-05-23T20:37:08;13.70;;;6.10;;
64459;SDS011;50828;53.756;21.140;2023-05-23T20:42:17;13.90;;;6.60;;
64459;SDS011;50828;53.756;21.140;2023-05-23T20:47:25;15.60;;;7.20;;
64459;SDS011;50828;53.756;21.140;2023-05-23T20:52:33;13.00;;;5.70;;
64459;SDS011;50828;53.756;21.140;2023-05-23T20:57:41;12.50;;;6.20;;
64459;SDS011;50828;53.756;21.140;2023-05-23T21:02:49;16.80;;;6.90;;
64459;SDS011;50828;53.756;21.140;2023-05-23T21:07:57;9.80;;;6.20;;
64459;SDS011;50828;53.756;21.140;2023-05-23T21:13:04;10.90;;;6.20;;
64459;SDS011;50828;53.756;21.140;2023-05-23T21:18:12;8.90;;;5.30;;
64459;SDS011;50828;53.756;21.140;2023-05-23T21:23:20;7.10;;;4.80;;
64459;SDS011;50828;53.756;21.140;2023-05-23T21:28:28;8.50;;;4.90;;
64459;SDS011;50828;53.756;21.140;2023-05-23T21:33:36;9.20;;;5.20;;
64459;SDS011;50828;53.756;21.140;2023-05-23T21:38:43;11.10;;;5.50;;
64459;SDS011;50828;53.756;21.140;2023-05-23T21:43:51;11.10;;;5.10;;
64459;SDS011;50828;53.756;21.140;2023-05-23T21:49:00;10.90;;;5.90;;
64459;SDS011;50828;53.756;21.140;2023-05-23T21:54:09;10.90;;;6.70;;
64459;SDS011;50828;53.756;21.140;2023-05-23T21:59:17;10.30;;;6.40;;
64459;SDS011;50828;53.756;21.140;2023-05-23T22:04:26;17.70;;;8.20;;
64459;SDS011;50828;53.756;21.140;2023-05-23T22:09:36;13.80;;;7.50;;
64459;SDS011;50828;53.756;21.140;2023-05-23T22:14:44;13.00;;;6.50;;
64459;SDS011;50828;53.756;21.140;2023-05-23T22:19:52;11.50;;;6.10;;
64459;SDS011;50828;53.756;21.140;2023-05-23T22:25:01;8.70;;;5.90;;
64459;SDS011;50828;53.756;21.140;2023-05-23T22:30:10;7.80;;;5.30;;
64459;SDS011;50828;53.756;21.140;2023-05-23T22:35:19;10.50;;;5.40;;
64459;SDS011;50828;53.756;21.140;2023-05-23T22:40:27;7.80;;;5.20;;
64459;SDS011;50828;53.756;21.140;2023-05-23T22:45:36;6.40;;;4.80;;
64459;SDS011;50828;53.756;21.140;2023-05-23T22:50:45;7.70;;;5.10;;
64459;SDS011;50828;53.756;21.140;2023-05-23T22:55:57;6.10;;;4.40;;
64459;SDS011;50828;53.756;21.140;2023-05-23T23:01:06;7.00;;;4.70;;
64459;SDS011;50828;53.756;21.140;2023-05-23T23:06:14;7.30;;;4.60;;
64459;SDS011;50828;53.756;21.140;2023-05-23T23:11:24;6.90;;;5.00;;
64459;SDS011;50828;53.756;21.140;2023-05-23T23:16:32;6.30;;;4.50;;
64459;SDS011;50828;53.756;21.140;2023-05-23T23:21:41;8.60;;;4.30;;
64459;SDS011;50828;53.756;21.140;2023-05-23T23:26:48;7.50;;;4.40;;
64459;SDS011;50828;53.756;21.140;2023-05-23T23:31:56;6.50;;;4.70;;
64459;SDS011;50828;53.756;21.140;2023-05-23T23:37:04;6.80;;;5.00;;
64459;SDS011;50828;53.756;21.140;2023-05-23T23:42:12;8.00;;;5.00;;
64459;SDS011;50828;53.756;21.140;2023-05-23T23:47:20;7.40;;;4.80;;
64459;SDS011;50828;53.756;21.140;2023-05-23T23:52:29;9.20;;;5.00;;
64459;SDS011;50828;53.756;21.140;2023-05-23T23:57:37;6.40;;;4.80;;
